Dale Hollow Observed Data For Previous 48 Hours

Caption
Day and Hour Reservoir Elevation (behind dam)* Tailwater Elevation (below dam)* Average Hourly Discharge*
9/20/2018 1 AM CDT 643.17 503.17 25
9/20/2018 2 AM CDT 643.17 503.07 25
9/20/2018 3 AM CDT 643.17 503.07 25
9/20/2018 4 AM CDT 643.17 503.07 25
9/20/2018 5 AM CDT 643.17 502.97 25
9/20/2018 6 AM CDT 643.17 502.97 25
9/20/2018 7 AM CDT 643.17 502.97 25
9/20/2018 8 AM CDT 643.17 503.07 75
9/20/2018 9 AM CDT 643.17 503.17 75
9/20/2018 10 AM CDT 643.17 503.27 75
9/20/2018 11 AM CDT 643.17 503.37 75
9/20/2018 12 PM CDT 643.17 503.37 75
9/20/2018 1 PM CDT 643.17 510.87 3,235
9/20/2018 2 PM CDT 643.17 511.47 3,240
9/20/2018 3 PM CDT 643.12 511.62 3,190
9/20/2018 4 PM CDT 643.12 511.72 3,190
9/20/2018 5 PM CDT 643.12 511.72 3,190
9/20/2018 6 PM CDT 643.12 511.62 3,190
9/20/2018 7 PM CDT 643.12 509.12 25
9/20/2018 8 PM CDT 643.12 506.62 25
9/20/2018 9 PM CDT 643.12 504.12 25
9/20/2018 10 PM CDT 643.12 503.72 25
9/20/2018 11 PM CDT 643.12 503.52 25
9/21/2018 12 AM CDT 643.12 503.32 25
9/21/2018 1 AM CDT 643.12 503.12 25
9/21/2018 2 AM CDT 643.12 503.12 25
9/21/2018 3 AM CDT 643.12 503.12 25
9/21/2018 4 AM CDT 643.12 503.12 25
9/21/2018 5 AM CDT 643.12 503.12 25
9/21/2018 6 AM CDT 643.12 503.12 25
9/21/2018 7 AM CDT 643.12 503.22 25
9/21/2018 8 AM CDT 643.11 503.51 25
9/21/2018 9 AM CDT 643.11 503.61 25
9/21/2018 10 AM CDT 643.10 503.80 25
9/21/2018 11 AM CDT 643.10 503.90 25
9/21/2018 12 PM CDT 643.07 507.87 1,625
9/21/2018 1 PM CDT 643.07 511.37 3,190
9/21/2018 2 PM CDT 643.07 511.77 3,190
9/21/2018 3 PM CDT 643.07 511.97 3,200
9/21/2018 4 PM CDT 643.07 512.07 3,200
9/21/2018 5 PM CDT 643.07 511.97 3,200
9/21/2018 6 PM CDT 643.05 512.15 3,195
9/21/2018 7 PM CDT 643.05 506.75 25
9/21/2018 8 PM CDT 643.01 505.01 25
9/21/2018 9 PM CDT 643.01 504.21 25
9/21/2018 10 PM CDT 643.01 503.81 25
9/21/2018 11 PM CDT 643.01 503.61 25
9/22/2018 12 AM CDT 643.01 503.51 25
9/22/2018 1 AM CDT 643.02 503.42 25
9/22/2018 2 AM CDT 643.02 503.32 25
9/22/2018 3 AM CDT 643.02 503.22 25
9/22/2018 4 AM CDT 643.02 503.22 25
9/22/2018 5 AM CDT 643.02 503.32 25
9/22/2018 6 AM CDT 643.02 503.42 25
9/22/2018 7 AM CDT 643.02 503.72 25
9/22/2018 8 AM CDT 643.02 503.92 25
9/22/2018 9 AM CDT 643.02 504.02 25
9/22/2018 10 AM CDT 643.01 510.51 3,185
9/22/2018 11 AM CDT 643.01 511.41 3,190
9/22/2018 12 PM CDT 643.01 506.31 25
9/22/2018 1 PM CDT 643.01 504.91 25
9/22/2018 2 PM CDT 643.01 504.71 25
9/22/2018 3 PM CDT 643.07 504.57 25

Elevations are in feet above sea level. Discharges are in cubic feet per second and are reported at the end of the hour.